createdAt,value
2023-01-29T00:01:15.347Z,8.47
2023-01-29T00:05:28.002Z,9.30
2023-01-29T00:09:35.181Z,8.90
2023-01-29T00:13:42.465Z,8.73
2023-01-29T00:17:49.358Z,9.33
2023-01-29T00:21:56.199Z,9.83
2023-01-29T00:26:02.900Z,8.33
2023-01-29T00:30:12.829Z,9.53
2023-01-29T00:34:19.540Z,8.27
2023-01-29T00:38:26.231Z,9.73
2023-01-29T00:42:51.786Z,10.23
2023-01-29T00:46:58.814Z,9.83
2023-01-29T00:51:05.717Z,10.10
2023-01-29T00:55:12.789Z,9.30
2023-01-29T00:59:19.494Z,10.70
2023-01-29T01:03:26.209Z,10.27
2023-01-29T01:07:33.151Z,11.13
2023-01-29T01:11:39.874Z,11.00
2023-01-29T01:15:46.564Z,10.60
2023-01-29T01:19:53.267Z,10.13
2023-01-29T01:23:59.960Z,10.40
2023-01-29T01:28:07.149Z,10.33
2023-01-29T01:32:14.282Z,10.17
2023-01-29T01:36:21.047Z,10.83
2023-01-29T01:40:27.715Z,9.97
2023-01-29T01:45:01.216Z,11.03
2023-01-29T01:49:15.939Z,10.97
2023-01-29T01:53:26.827Z,10.83
2023-01-29T01:57:33.652Z,10.43
2023-01-29T02:01:43.057Z,10.17
2023-01-29T02:06:09.511Z,11.40
2023-01-29T02:10:17.321Z,10.80
2023-01-29T02:14:25.491Z,9.43
2023-01-29T02:18:38.023Z,10.17
2023-01-29T02:23:03.821Z,9.60
2023-01-29T02:27:39.294Z,9.13
2023-01-29T02:31:56.814Z,10.20
2023-01-29T02:36:16.942Z,9.93
2023-01-29T02:40:23.570Z,10.57
2023-01-29T02:44:42.210Z,8.87
2023-01-29T02:49:01.831Z,9.13
2023-01-29T02:53:15.227Z,10.03
2023-01-29T02:57:29.195Z,9.60
2023-01-29T03:01:58.536Z,10.07
2023-01-29T03:06:34.497Z,8.80
2023-01-29T03:10:47.855Z,9.47
2023-01-29T03:15:13.167Z,11.20
2023-01-29T03:19:36.092Z,9.33
2023-01-29T03:24:01.405Z,10.20
2023-01-29T03:28:29.562Z,9.90
2023-01-29T03:32:38.482Z,9.77
2023-01-29T03:36:59.874Z,9.97
2023-01-29T03:41:19.479Z,9.43
2023-01-29T03:45:42.739Z,9.83
2023-01-29T03:50:16.044Z,9.37
2023-01-29T03:54:58.196Z,10.37
2023-01-29T03:59:15.776Z,9.45
2023-01-29T04:03:37.248Z,9.93
2023-01-29T04:07:46.002Z,10.43
2023-01-29T04:12:09.225Z,9.50
2023-01-29T04:16:23.949Z,9.47
2023-01-29T04:20:30.965Z,9.50
2023-01-29T04:24:37.960Z,10.10
2023-01-29T04:29:16.512Z,8.53
2023-01-29T04:34:01.603Z,9.73
2023-01-29T04:38:20.803Z,9.23
2023-01-29T04:42:33.676Z,10.17
2023-01-29T04:47:05.865Z,9.17
2023-01-29T04:51:25.773Z,9.80
2023-01-29T04:55:49.625Z,10.17
2023-01-29T05:00:08.697Z,10.23
2023-01-29T05:04:19.182Z,10.83
2023-01-29T05:08:28.301Z,11.27
2023-01-29T05:12:37.761Z,11.00
2023-01-29T05:16:49.401Z,12.47
2023-01-29T05:20:57.971Z,12.83
2023-01-29T05:25:07.162Z,13.23
2023-01-29T05:29:13.852Z,12.43
2023-01-29T05:33:23.203Z,12.63
2023-01-29T05:37:29.938Z,12.20
2023-01-29T05:41:36.623Z,12.50
2023-01-29T05:45:43.580Z,12.00
2023-01-29T05:49:50.282Z,12.77
2023-01-29T05:53:56.983Z,12.13
2023-01-29T05:58:05.909Z,12.10
2023-01-29T06:02:12.840Z,12.13
2023-01-29T06:06:19.548Z,12.43
2023-01-29T06:10:26.252Z,10.47
2023-01-29T06:14:32.983Z,10.77
2023-01-29T06:18:41.306Z,11.07
2023-01-29T06:22:47.986Z,10.23
2023-01-29T06:26:54.679Z,10.40
2023-01-29T06:31:23.777Z,11.37
2023-01-29T06:35:32.694Z,11.13
2023-01-29T06:39:39.384Z,10.77
2023-01-29T06:43:46.155Z,12.77
2023-01-29T06:47:52.842Z,12.53
2023-01-29T06:51:59.592Z,11.93
2023-01-29T06:56:07.273Z,14.60
2023-01-29T07:00:15.471Z,13.67
2023-01-29T07:04:22.361Z,13.20
2023-01-29T07:08:29.116Z,14.13
2023-01-29T07:12:35.812Z,14.07
2023-01-29T07:16:42.541Z,14.63
2023-01-29T07:20:49.256Z,14.70
2023-01-29T07:24:55.950Z,12.47
2023-01-29T07:29:04.560Z,16.00
2023-01-29T07:33:11.942Z,13.97
2023-01-29T07:37:18.616Z,14.13
2023-01-29T07:41:25.446Z,13.77
2023-01-29T07:45:35.295Z,14.67
2023-01-29T07:49:42.225Z,13.97
2023-01-29T07:53:48.893Z,12.00
2023-01-29T07:58:00.459Z,13.03
2023-01-29T08:02:08.887Z,10.93
2023-01-29T08:06:15.714Z,11.77
2023-01-29T08:10:22.708Z,11.33
2023-01-29T08:14:29.416Z,11.40
2023-01-29T08:18:37.922Z,10.20
2023-01-29T08:22:44.697Z,11.00
2023-01-29T08:26:51.386Z,11.37
2023-01-29T08:30:58.658Z,10.27
2023-01-29T08:35:05.692Z,11.47
2023-01-29T08:39:12.428Z,10.60
2023-01-29T08:43:19.100Z,10.70
2023-01-29T08:47:26.999Z,10.07
2023-01-29T08:51:34.712Z,10.33
2023-01-29T08:55:42.067Z,10.13
2023-01-29T08:59:48.851Z,9.90
2023-01-29T09:03:55.521Z,10.70
2023-01-29T09:08:02.237Z,10.07
2023-01-29T09:12:08.904Z,11.20
2023-01-29T09:16:15.664Z,10.40
2023-01-29T09:20:22.469Z,10.20
2023-01-29T09:24:29.885Z,11.23
2023-01-29T09:28:36.576Z,10.40
2023-01-29T09:32:53.318Z,10.77
2023-01-29T09:37:00.600Z,9.97
2023-01-29T09:41:33.690Z,10.90
2023-01-29T09:46:00.089Z,11.43
2023-01-29T09:50:36.283Z,9.93
2023-01-29T09:54:49.325Z,10.07
2023-01-29T10:03:04.171Z,10.83
2023-01-29T10:03:54.430Z,10.83
2023-01-29T10:08:28.962Z,10.63
2023-01-29T10:13:19.967Z,11.10
2023-01-29T10:17:39.277Z,11.63
2023-01-29T10:22:21.851Z,11.20
2023-01-29T10:26:29.783Z,10.55
2023-01-29T10:30:44.165Z,10.43
2023-01-29T10:35:04.425Z,10.80
2023-01-29T10:39:19.418Z,10.20
2023-01-29T10:43:52.966Z,11.07
2023-01-29T10:48:18.369Z,10.67
2023-01-29T10:52:35.315Z,9.80
2023-01-29T10:57:36.131Z,10.43
2023-01-29T11:01:42.865Z,10.50
2023-01-29T11:06:12.904Z,9.93
2023-01-29T11:10:22.281Z,11.03
2023-01-29T11:14:34.205Z,11.27
2023-01-29T11:18:52.872Z,11.30
2023-01-29T11:23:00.337Z,9.63
2023-01-29T11:27:25.907Z,10.43
2023-01-29T11:31:38.515Z,10.57
2023-01-29T11:35:46.158Z,9.90
2023-01-29T11:39:53.279Z,11.03
2023-01-29T11:44:01.078Z,11.20
2023-01-29T11:48:18.671Z,11.70
2023-01-29T11:52:38.944Z,12.00
2023-01-29T11:56:47.746Z,12.37
2023-01-29T12:00:55.637Z,13.23
2023-01-29T12:05:23.520Z,12.37
2023-01-29T12:09:31.052Z,12.17
2023-01-29T12:13:39.081Z,13.73
2023-01-29T12:17:53.628Z,12.13
2023-01-29T12:22:05.981Z,13.63
2023-01-29T12:26:21.563Z,13.90
2023-01-29T12:30:48.158Z,12.33
2023-01-29T12:35:31.004Z,13.60
2023-01-29T12:39:37.771Z,14.45
2023-01-29T12:43:52.636Z,14.17
2023-01-29T12:48:04.768Z,15.43
2023-01-29T12:52:32.970Z,17.15
2023-01-29T12:56:47.167Z,15.30
2023-01-29T13:00:57.091Z,16.57
2023-01-29T13:05:40.029Z,15.57
2023-01-29T13:09:50.976Z,17.05
2023-01-29T13:14:03.591Z,16.60
2023-01-29T13:22:34.042Z,16.17
2023-01-29T13:26:41.883Z,17.37
2023-01-29T13:31:12.666Z,18.17
2023-01-29T13:35:22.554Z,17.27
2023-01-29T13:39:39.678Z,17.97
2023-01-29T13:43:50.279Z,16.93
2023-01-29T13:48:20.099Z,18.80
2023-01-29T13:52:36.932Z,16.90
2023-01-29T13:56:56.566Z,16.57
2023-01-29T14:01:03.347Z,18.33
2023-01-29T14:05:32.063Z,18.50
2023-01-29T14:09:38.706Z,19.10
2023-01-29T14:13:47.381Z,18.77
2023-01-29T14:18:00.193Z,18.23
2023-01-29T14:22:06.967Z,19.83
2023-01-29T14:26:28.150Z,20.10
2023-01-29T14:30:35.441Z,17.50
2023-01-29T14:34:45.590Z,17.80
2023-01-29T14:38:54.340Z,18.27
2023-01-29T14:43:07.828Z,19.67
2023-01-29T14:47:32.843Z,19.40
2023-01-29T14:51:43.170Z,19.33
2023-01-29T14:55:58.202Z,17.63
2023-01-29T15:00:13.102Z,17.17
2023-01-29T15:04:30.537Z,16.60
2023-01-29T15:09:22.068Z,16.83
2023-01-29T15:13:53.607Z,17.70
2023-01-29T15:18:16.264Z,16.67
2023-01-29T15:22:29.791Z,18.17
2023-01-29T15:26:36.811Z,16.20
2023-01-29T15:30:45.052Z,17.23
2023-01-29T15:34:51.973Z,17.80
2023-01-29T15:39:18.889Z,17.03
2023-01-29T15:43:25.555Z,17.57
2023-01-29T15:47:32.718Z,17.30
2023-01-29T15:51:39.769Z,17.43
2023-01-29T15:55:47.535Z,18.37
2023-01-29T15:59:56.439Z,16.40
2023-01-29T16:04:03.760Z,17.50
2023-01-29T16:08:13.959Z,18.60
2023-01-29T16:12:21.207Z,17.00
2023-01-29T16:16:28.828Z,18.47
2023-01-29T16:20:46.936Z,17.17
2023-01-29T16:24:54.633Z,18.37
2023-01-29T16:29:11.432Z,16.37
2023-01-29T16:33:19.660Z,17.87
2023-01-29T16:37:28.544Z,18.40
2023-01-29T16:41:36.614Z,17.67
2023-01-29T16:45:58.707Z,18.07
2023-01-29T16:50:40.724Z,16.38
2023-01-29T16:55:00.174Z,17.90
2023-01-29T16:59:12.279Z,17.90
2023-01-29T17:03:20.012Z,18.10
2023-01-29T17:07:27.595Z,17.93
2023-01-29T17:11:38.121Z,18.07
2023-01-29T17:15:46.867Z,18.37
2023-01-29T17:19:53.587Z,17.57
2023-01-29T17:24:00.247Z,17.03
2023-01-29T17:28:07.535Z,18.13
2023-01-29T17:32:17.528Z,16.33
2023-01-29T17:36:26.001Z,17.67
2023-01-29T17:40:46.935Z,16.30
2023-01-29T17:44:53.690Z,17.47
2023-01-29T17:49:00.406Z,16.87
2023-01-29T17:53:07.263Z,17.40
2023-01-29T17:57:14.910Z,17.13
2023-01-29T18:01:21.729Z,17.13
2023-01-29T18:05:29.594Z,16.27
2023-01-29T18:09:36.287Z,17.27
2023-01-29T18:13:42.958Z,17.83
2023-01-29T18:17:52.107Z,17.03
2023-01-29T18:21:59.661Z,17.50
2023-01-29T18:26:07.597Z,16.53
2023-01-29T18:30:14.843Z,15.13
2023-01-29T18:34:21.702Z,16.20
2023-01-29T18:38:28.637Z,15.53
2023-01-29T18:42:36.033Z,15.60
2023-01-29T18:46:42.796Z,15.97
2023-01-29T18:50:50.540Z,15.90
2023-01-29T18:54:57.322Z,16.23
2023-01-29T18:59:05.699Z,15.93
2023-01-29T19:03:13.333Z,15.60
2023-01-29T19:07:20.126Z,15.03
2023-01-29T19:11:26.832Z,14.97
2023-01-29T19:15:33.969Z,15.47
2023-01-29T19:19:40.756Z,15.83
2023-01-29T19:23:47.831Z,14.80
2023-01-29T19:27:54.522Z,15.53
2023-01-29T19:32:01.238Z,17.07
2023-01-29T19:36:08.198Z,14.67
2023-01-29T19:40:14.978Z,16.40
2023-01-29T19:44:21.647Z,15.83
2023-01-29T19:48:28.759Z,15.90
2023-01-29T19:52:50.663Z,17.10
2023-01-29T19:56:58.066Z,14.60
2023-01-29T20:01:17.203Z,16.00
2023-01-29T20:05:26.927Z,15.23
2023-01-29T20:09:33.621Z,16.03
2023-01-29T20:13:40.677Z,15.83
2023-01-29T20:17:47.353Z,14.70
2023-01-29T20:21:54.070Z,15.00
2023-01-29T20:26:01.275Z,15.50
2023-01-29T20:30:08.655Z,14.77
2023-01-29T20:34:15.366Z,16.03
2023-01-29T20:38:22.419Z,16.23
2023-01-29T20:42:29.114Z,17.57
2023-01-29T20:46:36.133Z,16.63
2023-01-29T20:50:42.962Z,16.40
2023-01-29T20:54:49.646Z,17.50
2023-01-29T20:58:56.473Z,17.23
2023-01-29T21:03:03.432Z,16.63
2023-01-29T21:07:10.184Z,18.10
2023-01-29T21:11:17.006Z,17.47
2023-01-29T21:15:26.005Z,17.70
2023-01-29T21:19:33.031Z,19.13
2023-01-29T21:23:39.778Z,17.33
2023-01-29T21:27:46.522Z,16.77
2023-01-29T21:31:53.236Z,17.23
2023-01-29T21:36:00.849Z,19.53
2023-01-29T21:40:09.573Z,16.57
2023-01-29T21:44:16.225Z,18.23
2023-01-29T21:48:23.298Z,20.07
2023-01-29T21:52:29.959Z,19.40
2023-01-29T21:56:37.763Z,19.60
2023-01-29T22:00:48.752Z,19.50
2023-01-29T22:05:16.516Z,19.83
2023-01-29T22:09:24.689Z,19.53
2023-01-29T22:13:31.497Z,19.53
2023-01-29T22:17:41.067Z,19.57
2023-01-29T22:21:47.743Z,19.07
2023-01-29T22:25:54.742Z,20.83
2023-01-29T22:30:01.535Z,20.70
2023-01-29T22:34:10.344Z,19.33
2023-01-29T22:38:17.018Z,20.33
2023-01-29T22:42:23.703Z,20.07
2023-01-29T22:46:30.846Z,19.47
2023-01-29T22:50:38.691Z,21.27
2023-01-29T22:54:45.367Z,21.37
2023-01-29T22:58:57.154Z,21.00
2023-01-29T23:03:04.369Z,20.83
2023-01-29T23:07:11.355Z,21.43
2023-01-29T23:11:20.570Z,20.87
2023-01-29T23:15:27.273Z,22.63
2023-01-29T23:19:34.003Z,21.40
2023-01-29T23:23:40.878Z,20.83
2023-01-29T23:27:47.592Z,21.23
2023-01-29T23:31:54.460Z,22.98
2023-01-29T23:36:01.206Z,21.47
2023-01-29T23:40:08.546Z,22.17
2023-01-29T23:44:15.255Z,22.03
2023-01-29T23:48:22.430Z,22.07
2023-01-29T23:52:29.088Z,22.13
2023-01-29T23:56:35.763Z,22.20
